Time;durP1;ratioP1;P1;durP2;ratioP2;P2;SDS_P1;SDS_P2;PMS_P1;PMS_P2;Temp;Humidity;BMP_temperature;BMP_pressure;BME280_temperature;BME280_humidity;BME280_pressure;Samples;Min_cycle;Max_cycle;Signal;HPM_P1;HPM_P2
2023/08/12 00:01:35;;;;;;;5.53;4.25;;;;;;;-140.66;100.00;55571.53;5136343;27;20392;-71
2023/08/12 00:05:20;;;;;;;5.68;4.30;;;;;;;-140.66;100.00;55571.53;5137345;27;20041;-71
2023/08/12 00:09:04;;;;;;;5.65;3.90;;;;;;;-140.66;100.00;55571.53;5134805;27;20023;-71
2023/08/12 00:12:48;;;;;;;5.32;4.18;;;;;;;-140.66;100.00;55571.53;5136015;27;20027;-72
2023/08/12 00:16:33;;;;;;;5.32;4.00;;;;;;;-140.66;100.00;55571.53;5134985;27;20402;-72
2023/08/12 00:20:17;;;;;;;6.13;4.35;;;;;;;-140.66;100.00;55571.53;5134648;27;20092;-71
2023/08/12 00:24:01;;;;;;;6.63;4.20;;;;;;;-140.66;100.00;55571.53;5135646;27;20034;-71
2023/08/12 00:27:45;;;;;;;6.75;3.90;;;;;;;-140.66;100.00;55571.53;5134760;27;20034;-71
2023/08/12 00:31:30;;;;;;;8.35;4.45;;;;;;;-140.66;100.00;55571.53;5135465;27;20031;-71
2023/08/12 00:35:14;;;;;;;6.47;4.28;;;;;;;-140.66;100.00;55571.53;5135104;27;20027;-71
2023/08/12 00:38:58;;;;;;;6.43;4.20;;;;;;;-140.66;100.00;55571.53;5137783;27;20048;-71
2023/08/12 00:42:42;;;;;;;8.80;4.20;;;;;;;-140.66;100.00;55571.53;5141975;27;20019;-71
2023/08/12 00:46:27;;;;;;;8.90;4.38;;;;;;;-140.66;100.00;55571.53;5140881;27;20110;-71
2023/08/12 00:50:13;;;;;;;11.43;4.80;;;;;;;-140.66;100.00;55571.53;5142486;27;20066;-71
2023/08/12 00:53:58;;;;;;;7.15;4.07;;;;;;;-140.66;100.00;55571.53;5137889;27;20031;-71
2023/08/12 00:57:43;;;;;;;8.57;4.63;;;;;;;-140.66;100.00;55571.53;5142142;27;20102;-71
2023/08/12 01:01:28;;;;;;;9.07;4.65;;;;;;;-140.66;100.00;55571.53;5141800;28;20049;-72
2023/08/12 01:05:12;;;;;;;13.43;4.75;;;;;;;-140.66;100.00;55571.53;5142906;28;20107;-71
2023/08/12 01:08:56;;;;;;;11.07;4.93;;;;;;;-140.66;100.00;55571.53;5142604;28;20020;-72
2023/08/12 01:12:53;;;;;;;8.85;4.50;;;;;;;-140.66;100.00;55571.53;5136971;28;20026;-72
2023/08/12 01:16:40;;;;;;;8.02;4.90;;;;;;;-140.66;100.00;55571.53;5134764;28;20023;-71
2023/08/12 01:20:37;;;;;;;9.95;4.82;;;;;;;-140.66;100.00;55571.53;5134074;28;20498;-71
2023/08/12 01:24:24;;;;;;;9.75;4.43;;;;;;;-140.66;100.00;55571.53;5134577;28;20437;-71
2023/08/12 01:28:09;;;;;;;5.78;4.82;;;;;;;-140.66;100.00;55571.53;5133216;28;20026;-70
2023/08/12 01:32:03;;;;;;;8.68;5.10;;;;;;;-140.66;100.00;55571.53;5134823;28;20020;-71
2023/08/12 01:36:13;;;;;;;8.95;4.53;;;;;;;-140.66;100.00;55571.53;5136892;28;20080;-72
2023/08/12 01:40:00;;;;;;;7.20;5.00;;;;;;;-140.66;100.00;55571.53;5136611;28;20117;-72
2023/08/12 01:43:45;;;;;;;8.32;4.75;;;;;;;-140.66;100.00;55571.53;5142435;28;20034;-71
2023/08/12 01:47:29;;;;;;;7.57;4.80;;;;;;;-140.66;100.00;55571.53;5143589;28;20040;-72
2023/08/12 01:51:13;;;;;;;5.90;4.60;;;;;;;-140.66;100.00;55571.53;5142169;28;20032;-72
2023/08/12 01:54:57;;;;;;;5.70;4.97;;;;;;;-140.66;100.00;55571.53;5133776;28;20487;-72
2023/08/12 01:58:42;;;;;;;7.53;5.00;;;;;;;-140.66;100.00;55571.53;5134317;28;20027;-71
2023/08/12 02:02:26;;;;;;;7.80;4.63;;;;;;;-140.66;100.00;55571.53;5135332;28;20452;-71
2023/08/12 02:06:10;;;;;;;7.25;4.93;;;;;;;-140.66;100.00;55571.53;5137458;27;20076;-72
2023/08/12 02:09:54;;;;;;;7.28;4.97;;;;;;;-140.66;100.00;55571.53;5140930;27;20003;-71
2023/08/12 02:13:39;;;;;;;6.53;5.13;;;;;;;-140.66;100.00;55571.53;5152282;27;20031;-71
2023/08/12 02:17:23;;;;;;;6.53;5.00;;;;;;;-140.66;100.00;55571.53;5143453;27;20354;-72
2023/08/12 02:21:08;;;;;;;6.07;4.72;;;;;;;-140.66;100.00;55571.53;5136995;27;20428;-72
2023/08/12 02:24:52;;;;;;;6.60;4.90;;;;;;;-140.66;100.00;55571.53;5139395;27;20378;-73
2023/08/12 02:28:36;;;;;;;7.97;4.95;;;;;;;-140.66;100.00;55571.53;5136764;27;20118;-72
2023/08/12 02:32:20;;;;;;;5.88;5.10;;;;;;;-140.66;100.00;55571.53;5140746;27;20436;-72
2023/08/12 02:36:05;;;;;;;5.85;5.10;;;;;;;-140.66;100.00;55571.53;5152973;27;20077;-72
2023/08/12 02:39:49;;;;;;;5.38;4.88;;;;;;;-140.66;100.00;55571.53;5136915;27;20031;-72
2023/08/12 02:43:33;;;;;;;8.68;5.72;;;;;;;-140.66;100.00;55571.53;5136858;27;20031;-71
2023/08/12 02:47:17;;;;;;;10.43;6.03;;;;;;;-140.66;100.00;55571.53;5136667;27;20065;-71
2023/08/12 02:51:02;;;;;;;10.50;5.95;;;;;;;-140.66;100.00;55571.53;5137289;27;20054;-71
2023/08/12 02:54:46;;;;;;;7.22;6.10;;;;;;;-140.66;100.00;55571.53;5136083;27;20087;-71
2023/08/12 02:58:30;;;;;;;8.15;5.50;;;;;;;-140.66;100.00;55571.53;5136094;27;20119;-71
2023/08/12 03:02:16;;;;;;;6.18;5.50;;;;;;;-140.66;100.00;55571.53;5137167;27;20058;-72
2023/08/12 03:06:00;;;;;;;7.05;5.75;;;;;;;-140.66;100.00;55571.53;5136108;27;20334;-71
2023/08/12 03:09:44;;;;;;;7.30;5.05;;;;;;;-140.66;100.00;55571.53;5136214;27;20015;-70
2023/08/12 03:13:29;;;;;;;7.22;5.35;;;;;;;-140.66;100.00;55571.53;5136435;27;20027;-71
2023/08/12 03:17:13;;;;;;;7.05;5.45;;;;;;;-140.66;100.00;55571.53;5135469;27;20123;-71
2023/08/12 03:20:57;;;;;;;7.45;5.47;;;;;;;-140.66;100.00;55571.53;5137218;27;20052;-71
2023/08/12 03:24:41;;;;;;;6.82;6.13;;;;;;;-140.66;100.00;55571.53;5136021;27;20027;-71
2023/08/12 03:28:26;;;;;;;10.80;5.95;;;;;;;-140.66;100.00;55571.53;5135873;27;20425;-70
2023/08/12 03:32:10;;;;;;;10.98;5.78;;;;;;;-140.66;100.00;55571.53;5135222;27;20114;-71
2023/08/12 03:35:54;;;;;;;9.02;5.78;;;;;;;-140.66;100.00;55571.53;5135387;27;20023;-71
2023/08/12 03:39:38;;;;;;;8.55;5.55;;;;;;;-140.66;100.00;55571.53;5135185;27;20031;-72
2023/08/12 03:43:22;;;;;;;10.82;5.82;;;;;;;-140.66;100.00;55571.53;5135837;27;20425;-71
2023/08/12 03:47:07;;;;;;;9.77;5.97;;;;;;;-140.66;100.00;55571.53;5135630;27;20035;-72
2023/08/12 03:50:51;;;;;;;8.55;5.70;;;;;;;-140.66;100.00;55571.53;5135322;27;20023;-71
2023/08/12 03:54:35;;;;;;;9.63;6.20;;;;;;;-140.66;100.00;55571.53;5135213;27;20027;-71
2023/08/12 03:58:20;;;;;;;7.13;6.00;;;;;;;-140.66;100.00;55571.53;5135266;27;20444;-71
2023/08/12 04:02:04;;;;;;;10.02;6.30;;;;;;;-140.66;100.00;55571.53;5136041;27;20122;-71
2023/08/12 04:05:52;;;;;;;9.13;6.40;;;;;;;-140.66;100.00;55571.53;5135639;27;20326;-72
2023/08/12 04:09:36;;;;;;;7.80;5.95;;;;;;;-140.66;100.00;55571.53;5134486;27;20023;-72
2023/08/12 04:13:20;;;;;;;6.35;5.68;;;;;;;-140.66;100.00;55571.53;5134665;27;20033;-71
2023/08/12 04:17:04;;;;;;;8.63;5.75;;;;;;;-140.66;100.00;55571.53;5136051;27;20049;-71
2023/08/12 04:20:49;;;;;;;12.00;6.28;;;;;;;-140.66;100.00;55571.53;5134709;27;20444;-71
2023/08/12 04:24:34;;;;;;;8.18;5.88;;;;;;;-140.66;100.00;55571.53;5135165;27;20041;-71
2023/08/12 04:28:18;;;;;;;12.43;6.30;;;;;;;-140.66;100.00;55571.53;5135060;27;20031;-73
2023/08/12 04:32:04;;;;;;;7.95;5.90;;;;;;;-140.66;100.00;55571.53;5134201;27;20063;-72
2023/08/12 04:35:49;;;;;;;6.85;5.78;;;;;;;-140.66;100.00;55571.53;5134843;27;20019;-71
2023/08/12 04:39:33;;;;;;;10.20;6.22;;;;;;;-140.66;100.00;55571.53;5134823;27;20030;-71
2023/08/12 04:43:17;;;;;;;6.25;5.47;;;;;;;-140.66;100.00;55571.53;5134391;27;20102;-72
2023/08/12 04:47:02;;;;;;;9.45;6.00;;;;;;;-140.66;100.00;55571.53;5135596;27;20050;-72
2023/08/12 04:50:47;;;;;;;7.00;5.80;;;;;;;-140.66;100.00;55571.53;5133996;27;20061;-71
2023/08/12 04:54:31;;;;;;;8.07;5.60;;;;;;;-140.66;100.00;55571.53;5135062;27;20037;-72
2023/08/12 04:58:15;;;;;;;8.88;5.70;;;;;;;-140.66;100.00;55571.53;5135588;27;20032;-73
2023/08/12 05:01:59;;;;;;;8.25;6.03;;;;;;;-140.66;100.00;55571.53;5149216;27;20041;-72
2023/08/12 05:05:51;;;;;;;9.68;6.35;;;;;;;-140.66;100.00;55571.53;5134095;28;20046;-71
2023/08/12 05:09:35;;;;;;;12.60;6.90;;;;;;;-140.66;100.00;55571.53;5134726;28;20023;-72
2023/08/12 05:13:19;;;;;;;11.60;6.50;;;;;;;-140.66;100.00;55571.53;5136038;28;20464;-72
2023/08/12 05:17:05;;;;;;;11.40;6.95;;;;;;;-140.66;100.00;55571.53;5134279;28;20031;-72
2023/08/12 05:20:51;;;;;;;10.65;6.65;;;;;;;-140.66;100.00;55571.53;5133725;28;20492;-72
2023/08/12 05:24:35;;;;;;;14.23;6.93;;;;;;;-140.66;100.00;55571.53;5138356;28;20213;-70
2023/08/12 05:28:19;;;;;;;9.20;7.40;;;;;;;-140.66;100.00;55571.53;5134135;28;20511;-71
2023/08/12 05:32:03;;;;;;;9.52;7.03;;;;;;;-140.66;100.00;55571.53;5135272;28;20027;-71
2023/08/12 05:35:48;;;;;;;8.60;6.90;;;;;;;-140.66;100.00;55571.53;5134629;28;20031;-71
2023/08/12 05:39:33;;;;;;;10.25;7.68;;;;;;;-140.66;100.00;55571.53;5134571;27;20031;-71
2023/08/12 05:43:17;;;;;;;11.00;7.32;;;;;;;-140.66;100.00;55571.53;5138312;27;20444;-71
2023/08/12 05:47:01;;;;;;;8.93;7.40;;;;;;;-140.66;100.00;55571.53;5138590;27;20062;-71
2023/08/12 05:50:45;;;;;;;8.45;6.97;;;;;;;-140.66;100.00;55571.53;5138325;27;20050;-71
2023/08/12 05:54:30;;;;;;;8.55;7.47;;;;;;;-140.66;100.00;55571.53;5137466;27;20123;-71
2023/08/12 05:58:14;;;;;;;8.13;6.95;;;;;;;-140.66;100.00;55571.53;5137347;27;20134;-72
2023/08/12 06:01:58;;;;;;;11.27;6.90;;;;;;;-140.66;100.00;55571.53;5138544;27;20114;-72
2023/08/12 06:05:43;;;;;;;9.65;7.22;;;;;;;-140.66;100.00;55571.53;5138759;27;20026;-72
2023/08/12 06:09:27;;;;;;;10.20;7.50;;;;;;;-140.66;100.00;55571.53;5138788;27;20024;-71
2023/08/12 06:13:11;;;;;;;14.65;7.15;;;;;;;-140.66;100.00;55571.53;5138264;27;20019;-71
2023/08/12 06:16:56;;;;;;;12.23;6.32;;;;;;;-140.66;100.00;55571.53;5137682;27;20110;-71
2023/08/12 06:20:40;;;;;;;8.82;6.55;;;;;;;-140.66;100.00;55571.53;5137110;27;20430;-71
2023/08/12 06:24:24;;;;;;;11.65;6.85;;;;;;;-140.66;100.00;55571.53;5137716;27;20023;-71
2023/08/12 06:28:09;;;;;;;8.73;6.40;;;;;;;-140.66;100.00;55571.53;5136720;27;20027;-72
2023/08/12 06:31:54;;;;;;;13.63;6.72;;;;;;;-140.66;100.00;55571.53;5136993;27;20456;-72
2023/08/12 06:35:39;;;;;;;8.05;6.63;;;;;;;-140.66;100.00;55571.53;5136913;27;20114;-72
2023/08/12 06:39:24;;;;;;;10.77;6.57;;;;;;;-140.66;100.00;55571.53;5138191;27;20027;-71
2023/08/12 06:43:08;;;;;;;11.38;6.20;;;;;;;-140.66;100.00;55571.53;5136968;27;20114;-71
2023/08/12 06:46:52;;;;;;;8.70;6.68;;;;;;;-140.66;100.00;55571.53;5137768;27;20475;-71
2023/08/12 06:50:37;;;;;;;8.50;6.40;;;;;;;-140.66;100.00;55571.53;5136772;27;20155;-72
2023/08/12 06:54:22;;;;;;;10.50;6.20;;;;;;;-140.66;100.00;55571.53;5137275;27;20058;-72
2023/08/12 06:58:07;;;;;;;7.82;6.00;;;;;;;-140.66;100.00;55571.53;5138344;27;20091;-72
2023/08/12 07:01:51;;;;;;;11.60;6.63;;;;;;;-140.66;100.00;55571.53;5136217;27;20031;-72
2023/08/12 07:05:35;;;;;;;11.40;6.65;;;;;;;-140.66;100.00;55571.53;5136782;27;20041;-71
2023/08/12 07:09:19;;;;;;;10.60;6.18;;;;;;;-140.66;100.00;55571.53;5136335;27;20119;-73
2023/08/12 07:13:04;;;;;;;11.50;6.72;;;;;;;-140.66;100.00;55571.53;5137292;27;20352;-73
2023/08/12 07:16:48;;;;;;;8.93;6.10;;;;;;;-140.66;100.00;55571.53;5136434;27;20023;-72
2023/08/12 07:20:32;;;;;;;8.40;6.28;;;;;;;-140.66;100.00;55571.53;5136827;27;20073;-71
2023/08/12 07:24:17;;;;;;;10.57;6.20;;;;;;;-140.66;100.00;55571.53;5136612;27;20188;-72
2023/08/12 07:28:01;;;;;;;15.65;6.22;;;;;;;-140.66;100.00;55571.53;5136204;27;20042;-71
2023/08/12 07:31:46;;;;;;;11.18;5.93;;;;;;;-140.66;100.00;55571.53;5136313;27;20023;-71
2023/08/12 07:35:31;;;;;;;8.45;5.72;;;;;;;-140.66;100.00;55571.53;5135590;27;20020;-71
2023/08/12 07:39:15;;;;;;;8.70;5.57;;;;;;;-140.66;100.00;55571.53;5136679;27;20031;-71
2023/08/12 07:42:59;;;;;;;11.32;6.18;;;;;;;-140.66;100.00;55571.53;5136581;27;20058;-70
2023/08/12 07:46:44;;;;;;;9.65;6.05;;;;;;;-140.66;100.00;55571.53;5135386;27;20102;-72
2023/08/12 07:50:28;;;;;;;9.35;5.82;;;;;;;-140.66;100.00;55571.53;5135924;27;20046;-71
2023/08/12 07:54:12;;;;;;;11.00;6.28;;;;;;;-140.66;100.00;55571.53;5137076;27;20436;-72
2023/08/12 07:57:56;;;;;;;9.60;5.88;;;;;;;-140.66;100.00;55571.53;5134855;27;20095;-72
2023/08/12 08:01:40;;;;;;;8.50;5.68;;;;;;;-140.66;100.00;55571.53;5135399;27;20118;-72
2023/08/12 08:05:25;;;;;;;7.82;5.75;;;;;;;-140.66;100.00;55571.53;5136490;27;20038;-72
2023/08/12 08:09:09;;;;;;;5.93;5.15;;;;;;;-140.66;100.00;55571.53;5135130;27;20114;-72
2023/08/12 08:12:53;;;;;;;8.88;5.70;;;;;;;-140.66;100.00;55571.53;5134595;27;20023;-70
2023/08/12 08:16:40;;;;;;;12.05;6.10;;;;;;;-140.66;100.00;55571.53;5135145;27;20020;-72
2023/08/12 08:20:24;;;;;;;9.07;5.80;;;;;;;-140.66;100.00;55571.53;5134687;27;20352;-72
2023/08/12 08:24:11;;;;;;;6.28;5.38;;;;;;;-140.66;100.00;55571.53;5136451;27;20019;-72
2023/08/12 08:27:55;;;;;;;8.65;6.00;;;;;;;-140.66;100.00;55571.53;5135881;27;20444;-72
2023/08/12 08:31:39;;;;;;;10.85;5.78;;;;;;;-140.66;100.00;55571.53;5135066;27;20084;-71
2023/08/12 08:35:23;;;;;;;8.00;5.28;;;;;;;-140.66;100.00;55571.53;5135235;27;20019;-72
2023/08/12 08:39:08;;;;;;;6.90;5.47;;;;;;;-140.66;100.00;55571.53;5135367;27;20120;-72
2023/08/12 08:42:53;;;;;;;7.65;5.50;;;;;;;-140.66;100.00;55571.53;5137259;27;20031;-72
2023/08/12 08:46:38;;;;;;;18.13;7.45;;;;;;;-140.66;100.00;55571.53;5133505;27;20472;-71
2023/08/12 08:50:22;;;;;;;6.78;5.43;;;;;;;-140.66;100.00;55571.53;5134505;27;20376;-72
2023/08/12 08:54:07;;;;;;;6.00;5.07;;;;;;;-140.66;100.00;55571.53;5134244;27;20023;-72
2023/08/12 08:57:52;;;;;;;7.82;5.20;;;;;;;-140.66;100.00;55571.53;5134536;27;20054;-72
2023/08/12 09:01:37;;;;;;;5.55;5.05;;;;;;;-140.66;100.00;55571.53;5133566;27;20035;-71
2023/08/12 09:05:22;;;;;;;11.85;6.80;;;;;;;-140.66;100.00;55571.53;5135205;28;20058;-72
2023/08/12 09:09:10;;;;;;;9.35;5.25;;;;;;;-140.66;100.00;55571.53;5133154;28;20035;-72
2023/08/12 09:12:55;;;;;;;10.68;4.88;;;;;;;-140.66;100.00;55571.53;5134689;28;20019;-71
2023/08/12 09:16:39;;;;;;;10.48;4.88;;;;;;;-140.66;100.00;55571.53;5138121;27;20035;-72
2023/08/12 09:20:24;;;;;;;6.07;5.07;;;;;;;-140.66;100.00;55571.53;5138639;27;20084;-72
2023/08/12 09:24:08;;;;;;;5.75;5.05;;;;;;;-140.66;100.00;55571.53;5138116;27;20132;-72
2023/08/12 09:27:58;;;;;;;7.57;4.70;;;;;;;-140.66;100.00;55571.53;5137579;27;20110;-72
2023/08/12 09:31:48;;;;;;;7.38;5.15;;;;;;;-140.66;100.00;55571.53;5138121;27;20509;-72
2023/08/12 09:35:34;;;;;;;7.18;4.70;;;;;;;-140.66;100.00;55571.53;5138258;27;20418;-72
2023/08/12 09:39:19;;;;;;;10.02;5.10;;;;;;;-140.66;100.00;55571.53;5139361;27;20030;-72
2023/08/12 09:43:04;;;;;;;6.05;4.78;;;;;;;-140.66;100.00;55571.53;5140290;27;20023;-72
2023/08/12 09:46:48;;;;;;;7.95;5.07;;;;;;;-140.66;100.00;55571.53;5151871;27;20008;-71
2023/08/12 09:50:32;;;;;;;5.90;4.90;;;;;;;-140.66;100.00;55571.53;5151958;27;20047;-71
2023/08/12 09:54:17;;;;;;;10.90;4.63;;;;;;;-140.66;100.00;55571.53;5150609;27;20043;-71
2023/08/12 09:58:05;;;;;;;9.25;4.65;;;;;;;-140.66;100.00;55571.53;5150181;27;20023;-72
2023/08/12 10:01:52;;;;;;;4.97;4.45;;;;;;;-140.66;100.00;55571.53;5146809;27;20015;-71
2023/08/12 10:05:38;;;;;;;7.65;4.47;;;;;;;-140.66;100.00;55571.53;5151091;27;20019;-73
2023/08/12 10:09:22;;;;;;;9.23;4.78;;;;;;;-140.66;100.00;55571.53;5142161;27;20035;-72
2023/08/12 10:13:07;;;;;;;6.95;5.05;;;;;;;-140.66;100.00;55571.53;5137671;27;20136;-72
2023/08/12 10:16:51;;;;;;;12.55;4.60;;;;;;;-140.66;100.00;55571.53;5137316;27;20037;-71
2023/08/12 10:20:36;;;;;;;5.25;4.50;;;;;;;-140.66;100.00;55571.53;5137331;27;20065;-72
2023/08/12 10:24:21;;;;;;;6.15;4.30;;;;;;;-140.66;100.00;55571.53;5137669;27;20349;-72
2023/08/12 10:28:05;;;;;;;7.03;4.95;;;;;;;-140.66;100.00;55571.53;5136224;27;20027;-72
2023/08/12 10:31:50;;;;;;;9.48;4.45;;;;;;;-140.66;100.00;55571.53;5138655;27;20353;-72
2023/08/12 10:35:45;;;;;;;14.55;4.57;;;;;;;-140.66;100.00;55571.53;5137691;27;20441;-71
2023/08/12 10:39:33;;;;;;;7.85;4.90;;;;;;;-140.66;100.00;55571.53;5137118;27;20023;-71
2023/08/12 10:43:48;;;;;;;9.10;4.55;;;;;;;-140.66;100.00;55571.53;5137481;27;20031;-71
2023/08/12 10:47:37;;;;;;;6.05;4.45;;;;;;;-140.66;100.00;55571.53;5137153;27;20054;-72
2023/08/12 10:51:50;;;;;;;4.78;4.18;;;;;;;-140.66;100.00;55571.53;5136692;27;20084;-72
2023/08/12 10:55:36;;;;;;;6.68;4.10;;;;;;;-140.66;100.00;55571.53;5137184;27;20031;-72
2023/08/12 10:59:45;;;;;;;4.63;4.13;;;;;;;-140.66;100.00;55571.53;5136588;27;20441;-72
2023/08/12 11:03:32;;;;;;;7.90;4.25;;;;;;;-140.66;100.00;55571.53;5136447;27;20027;-71
2023/08/12 11:07:18;;;;;;;6.30;4.55;;;;;;;-140.66;100.00;55571.53;5137102;27;20031;-72
2023/08/12 11:11:20;;;;;;;6.60;4.45;;;;;;;-140.66;100.00;55571.53;5136865;27;20031;-72
2023/08/12 11:15:10;;;;;;;8.52;4.00;;;;;;;-140.66;100.00;55571.53;5136636;27;20023;-72
2023/08/12 11:18:55;;;;;;;5.10;4.20;;;;;;;-140.66;100.00;55571.53;5136597;27;20019;-72
2023/08/12 11:22:41;;;;;;;4.40;4.00;;;;;;;-140.66;100.00;55571.53;5136172;27;20035;-72
2023/08/12 11:26:30;;;;;;;7.95;4.32;;;;;;;-140.66;100.00;55571.53;5135719;27;20353;-72
2023/08/12 11:30:15;;;;;;;5.00;3.72;;;;;;;-140.66;100.00;55571.53;5136119;27;20038;-71
2023/08/12 11:34:00;;;;;;;9.32;4.72;;;;;;;-140.66;100.00;55571.53;5135979;27;20042;-72
2023/08/12 11:37:45;;;;;;;5.25;3.60;;;;;;;-140.66;100.00;55571.53;5135305;27;20105;-72
2023/08/12 11:41:30;;;;;;;5.78;3.70;;;;;;;-140.66;100.00;55571.53;5136443;27;20106;-71
2023/08/12 11:45:22;;;;;;;7.75;4.00;;;;;;;-140.66;100.00;55571.53;5135483;27;20030;-71
2023/08/12 11:49:06;;;;;;;7.82;3.72;;;;;;;-140.66;100.00;55571.53;5135019;27;20101;-73
2023/08/12 11:52:51;;;;;;;5.20;3.50;;;;;;;-140.66;100.00;55571.53;5135158;27;20440;-72
2023/08/12 11:56:35;;;;;;;4.15;3.75;;;;;;;-140.66;100.00;55571.53;5135059;27;20054;-72
2023/08/12 12:00:20;;;;;;;4.07;3.33;;;;;;;-140.66;100.00;55571.53;5134848;27;20023;-71
2023/08/12 12:04:05;;;;;;;6.30;3.70;;;;;;;-140.66;100.00;55571.53;5135373;27;20031;-73
2023/08/12 12:07:49;;;;;;;5.55;3.42;;;;;;;-140.66;100.00;55571.53;5135009;27;20030;-72
2023/08/12 12:11:34;;;;;;;5.55;3.50;;;;;;;-140.66;100.00;55571.53;5134861;27;20030;-72
2023/08/12 12:15:19;;;;;;;7.60;3.65;;;;;;;-140.66;100.00;55571.53;5135635;27;20050;-72
2023/08/12 12:19:10;;;;;;;5.20;3.40;;;;;;;-140.66;100.00;55571.53;5134710;27;20129;-72
2023/08/12 12:22:55;;;;;;;7.30;2.97;;;;;;;-140.66;100.00;55571.53;5136522;27;20050;-72
2023/08/12 12:26:39;;;;;;;4.32;3.33;;;;;;;-140.66;100.00;55571.53;5134791;27;20450;-72
2023/08/12 12:30:23;;;;;;;5.78;3.33;;;;;;;-140.66;100.00;55571.53;5135054;27;20027;-71
2023/08/12 12:34:09;;;;;;;5.78;3.25;;;;;;;-140.66;100.00;55571.53;5136343;27;20341;-71
2023/08/12 12:37:53;;;;;;;9.40;3.72;;;;;;;-140.66;100.00;55571.53;5135060;27;20160;-73
2023/08/12 12:41:38;;;;;;;7.28;3.53;;;;;;;-140.66;100.00;55571.53;5147293;27;20016;-72
2023/08/12 12:45:22;;;;;;;4.43;3.40;;;;;;;-140.66;100.00;55571.53;5139379;27;20069;-72
2023/08/12 12:49:06;;;;;;;5.20;3.67;;;;;;;-140.66;100.00;55571.53;5135562;27;20047;-73
2023/08/12 12:52:50;;;;;;;6.57;3.50;;;;;;;-140.66;100.00;55571.53;5136492;27;20030;-73
2023/08/12 12:56:35;;;;;;;3.85;3.17;;;;;;;-140.66;100.00;55571.53;5136053;27;20337;-71
2023/08/12 13:00:19;;;;;;;3.63;3.22;;;;;;;-140.66;100.00;55571.53;5142627;27;20464;-72
2023/08/12 13:04:03;;;;;;;4.30;3.42;;;;;;;-140.66;100.00;55571.53;5141934;27;20060;-71
2023/08/12 13:07:47;;;;;;;4.03;2.95;;;;;;;-140.66;100.00;55571.53;5137079;28;20394;-72
2023/08/12 13:11:36;;;;;;;8.43;3.22;;;;;;;-140.66;100.00;55571.53;5134715;28;20050;-73
2023/08/12 13:15:20;;;;;;;3.63;2.70;;;;;;;-140.66;100.00;55571.53;5134353;28;20065;-72
2023/08/12 13:19:04;;;;;;;3.22;2.70;;;;;;;-140.66;100.00;55571.53;5134436;28;20023;-73
2023/08/12 13:22:49;;;;;;;3.33;2.80;;;;;;;-140.66;100.00;55571.53;5133655;28;20027;-76
2023/08/12 13:26:33;;;;;;;4.05;3.10;;;;;;;-140.66;100.00;55571.53;5134078;28;20038;-73
2023/08/12 13:30:17;;;;;;;3.22;2.38;;;;;;;-140.66;100.00;55571.53;5134717;28;20092;-72
2023/08/12 13:34:02;;;;;;;5.60;2.60;;;;;;;-140.66;100.00;55571.53;5134196;28;20049;-72
2023/08/12 13:37:47;;;;;;;7.50;3.10;;;;;;;-140.66;100.00;55571.53;5134824;28;20029;-73
2023/08/12 13:41:31;;;;;;;9.48;3.33;;;;;;;-140.66;100.00;55571.53;5135535;28;20027;-71
2023/08/12 13:45:15;;;;;;;4.90;3.78;;;;;;;-140.66;100.00;55571.53;5134462;28;20039;-72
2023/08/12 13:48:59;;;;;;;6.95;3.53;;;;;;;-140.66;100.00;55571.53;5134607;28;20362;-72
2023/08/12 13:52:46;;;;;;;6.15;3.75;;;;;;;-140.66;100.00;55571.53;5133738;28;20352;-72
2023/08/12 13:56:30;;;;;;;5.03;3.60;;;;;;;-140.66;100.00;55571.53;5133371;28;20055;-73
2023/08/12 14:00:15;;;;;;;5.80;3.88;;;;;;;-140.66;100.00;55571.53;5134350;28;20023;-72
2023/08/12 14:03:59;;;;;;;4.90;3.90;;;;;;;-140.66;100.00;55571.53;5138314;27;20023;-73
2023/08/12 14:07:43;;;;;;;5.85;3.95;;;;;;;-140.66;100.00;55571.53;5138977;27;20475;-71
2023/08/12 14:11:28;;;;;;;9.27;3.55;;;;;;;-140.66;100.00;55571.53;5137715;27;20023;-72
2023/08/12 14:15:12;;;;;;;8.10;4.13;;;;;;;-140.66;100.00;55571.53;5140667;27;20369;-71
2023/08/12 14:18:56;;;;;;;3.75;3.38;;;;;;;-140.66;100.00;55571.53;5141372;27;20023;-71
2023/08/12 14:22:43;;;;;;;5.38;3.58;;;;;;;-140.66;100.00;55571.53;5140250;27;20023;-71
2023/08/12 14:26:28;;;;;;;5.15;3.67;;;;;;;-140.66;100.00;55571.53;5141682;27;20073;-72
2023/08/12 14:30:12;;;;;;;4.65;3.58;;;;;;;-140.66;100.00;55571.53;5142872;27;20019;-70
2023/08/12 14:33:57;;;;;;;5.05;3.40;;;;;;;-140.66;100.00;55571.53;5142663;27;20330;-71
2023/08/12 14:37:41;;;;;;;4.03;3.47;;;;;;;-140.66;100.00;55571.53;5140574;27;20027;-71
2023/08/12 14:41:25;;;;;;;5.13;3.60;;;;;;;-140.66;100.00;55571.53;5138692;27;20467;-72
2023/08/12 14:45:09;;;;;;;4.63;3.40;;;;;;;-140.66;100.00;55571.53;5139127;27;20399;-71
2023/08/12 14:48:56;;;;;;;5.78;3.80;;;;;;;-140.66;100.00;55571.53;5136820;27;20047;-72
2023/08/12 14:52:40;;;;;;;6.40;3.70;;;;;;;-140.66;100.00;55571.53;5136962;27;20027;-72
2023/08/12 14:56:24;;;;;;;7.22;3.50;;;;;;;-140.66;100.00;55571.53;5137101;27;20023;-72
2023/08/12 15:00:10;;;;;;;17.63;15.23;;;;;;;-140.66;100.00;55571.53;5137205;27;20027;-72
2023/08/12 15:03:55;;;;;;;5.53;3.60;;;;;;;-140.66;100.00;55571.53;5137398;27;20046;-72
2023/08/12 15:07:39;;;;;;;4.20;3.50;;;;;;;-140.66;100.00;55571.53;5136602;27;20030;-72
2023/08/12 15:11:25;;;;;;;4.47;3.47;;;;;;;-140.66;100.00;55571.53;5137847;27;20027;-72
2023/08/12 15:15:09;;;;;;;4.63;3.78;;;;;;;-140.66;100.00;55571.53;5136111;27;20068;-73
2023/08/12 15:18:53;;;;;;;9.70;3.53;;;;;;;-140.66;100.00;55571.53;5136872;27;20079;-72
2023/08/12 15:22:37;;;;;;;3.83;3.42;;;;;;;-140.66;100.00;55571.53;5135852;27;20040;-72
2023/08/12 15:26:24;;;;;;;10.65;3.92;;;;;;;-140.66;100.00;55571.53;5135899;27;20110;-72
2023/08/12 15:30:10;;;;;;;6.55;3.63;;;;;;;-140.66;100.00;55571.53;5135524;27;20345;-72
2023/08/12 15:33:54;;;;;;;7.97;3.60;;;;;;;-140.66;100.00;55571.53;5135708;27;20058;-71
2023/08/12 15:37:38;;;;;;;6.03;3.60;;;;;;;-140.66;100.00;55571.53;5150836;27;20034;-71
2023/08/12 15:41:22;;;;;;;3.95;3.50;;;;;;;-140.66;100.00;55571.53;5146299;27;20019;-72
2023/08/12 15:45:11;;;;;;;6.97;3.67;;;;;;;-140.66;100.00;55571.53;5137734;27;20457;-72
2023/08/12 15:48:55;;;;;;;4.05;3.30;;;;;;;-140.66;100.00;55571.53;5135372;27;20063;-71
2023/08/12 15:52:40;;;;;;;5.15;3.60;;;;;;;-140.66;100.00;55571.53;5135932;27;20363;-72
2023/08/12 15:56:24;;;;;;;5.20;3.50;;;;;;;-140.66;100.00;55571.53;5135745;27;20031;-72
2023/08/12 16:00:10;;;;;;;5.50;3.53;;;;;;;-140.66;100.00;55571.53;5149411;27;20046;-72
2023/08/12 16:03:54;;;;;;;4.50;3.60;;;;;;;-140.66;100.00;55571.53;5136731;27;20113;-72
2023/08/12 16:07:39;;;;;;;7.57;3.60;;;;;;;-140.66;100.00;55571.53;5136543;27;20023;-73
2023/08/12 16:11:23;;;;;;;6.10;3.60;;;;;;;-140.66;100.00;55571.53;5149715;27;20022;-72
2023/08/12 16:15:08;;;;;;;9.63;3.95;;;;;;;-140.66;100.00;55571.53;5134948;27;20023;-72
2023/08/12 16:18:52;;;;;;;4.22;3.80;;;;;;;-140.66;100.00;55571.53;5135649;27;20035;-73
2023/08/12 16:22:36;;;;;;;6.90;3.88;;;;;;;-140.66;100.00;55571.53;5134798;27;20027;-72
2023/08/12 16:26:20;;;;;;;7.85;4.07;;;;;;;-140.66;100.00;55571.53;5135546;27;20027;-71
2023/08/12 16:30:05;;;;;;;5.43;3.60;;;;;;;-140.66;100.00;55571.53;5134909;27;20023;-74
2023/08/12 16:33:49;;;;;;;9.27;4.03;;;;;;;-140.66;100.00;55571.53;5134464;27;20066;-73
2023/08/12 16:37:34;;;;;;;7.95;3.60;;;;;;;-140.66;100.00;55571.53;5135082;27;20114;-72
2023/08/12 16:41:18;;;;;;;4.82;4.00;;;;;;;-140.66;100.00;55571.53;5134841;27;20110;-73
2023/08/12 16:45:03;;;;;;;10.45;4.00;;;;;;;-140.66;100.00;55571.53;5134856;27;20035;-72
2023/08/12 16:48:48;;;;;;;7.90;4.10;;;;;;;-140.66;100.00;55571.53;5134213;27;20134;-72
2023/08/12 16:52:32;;;;;;;5.88;3.75;;;;;;;-140.66;100.00;55571.53;5135587;27;20087;-72
2023/08/12 16:56:16;;;;;;;5.32;4.10;;;;;;;-140.66;100.00;55571.53;5134735;27;20084;-73
2023/08/12 17:00:04;;;;;;;5.53;4.05;;;;;;;-140.66;100.00;55571.53;5133888;27;20118;-73